createdAt,value
2022-08-10T00:01:51.390Z,22.57
2022-08-10T00:04:21.505Z,22.45
2022-08-10T00:06:52.377Z,22.59
2022-08-10T00:09:20.721Z,22.51
2022-08-10T00:11:48.907Z,22.45
2022-08-10T00:14:17.052Z,22.38
2022-08-10T00:16:45.166Z,22.26
2022-08-10T00:19:16.728Z,22.25
2022-08-10T00:21:47.116Z,22.11
2022-08-10T00:24:17.169Z,22.08
2022-08-10T00:28:01.591Z,22.10
2022-08-10T00:29:33.955Z,22.12
2022-08-10T00:32:01.968Z,21.90
2022-08-10T00:34:30.666Z,21.94
2022-08-10T00:36:59.551Z,21.93
2022-08-10T00:39:29.709Z,21.76
2022-08-10T00:42:07.098Z,21.82
2022-08-10T00:44:38.545Z,21.90
2022-08-10T00:47:07.198Z,21.95
2022-08-10T00:49:45.780Z,21.77
2022-08-10T00:52:15.575Z,21.76
2022-08-10T00:54:45.391Z,21.77
2022-08-10T00:57:18.549Z,21.76
2022-08-10T00:59:57.948Z,21.65
2022-08-10T01:02:30.556Z,21.65
2022-08-10T01:05:01.999Z,21.83
2022-08-10T01:07:43.048Z,21.80
2022-08-10T01:10:21.844Z,21.76
2022-08-10T01:12:56.029Z,21.67
2022-08-10T01:15:29.443Z,21.73
2022-08-10T01:18:03.552Z,21.70
2022-08-10T01:20:38.854Z,21.61
2022-08-10T01:23:41.345Z,21.51
2022-08-10T01:26:31.105Z,21.56
2022-08-10T01:29:42.996Z,21.50
2022-08-10T01:32:14.786Z,21.59
2022-08-10T01:34:51.578Z,21.59
2022-08-10T01:37:25.456Z,21.46
2022-08-10T01:39:58.501Z,21.46
2022-08-10T01:42:29.385Z,21.33
2022-08-10T01:45:01.896Z,21.35
2022-08-10T01:47:51.930Z,21.29
2022-08-10T01:50:27.409Z,21.19
2022-08-10T01:53:01.872Z,21.34
2022-08-10T01:55:31.129Z,21.41
2022-08-10T01:58:04.196Z,21.39
2022-08-10T02:00:36.176Z,21.51
2022-08-10T02:03:06.883Z,21.42
2022-08-10T02:05:37.416Z,21.44
2022-08-10T02:08:08.129Z,21.37
2022-08-10T02:10:40.355Z,21.39
2022-08-10T02:13:10.244Z,21.49
2022-08-10T02:16:01.146Z,21.37
2022-08-10T02:18:31.884Z,21.18
2022-08-10T02:21:04.182Z,21.18
2022-08-10T02:23:34.345Z,21.02
2022-08-10T02:26:04.814Z,20.90
2022-08-10T02:28:34.653Z,20.85
2022-08-10T02:31:09.447Z,20.85
2022-08-10T02:33:56.902Z,20.86
2022-08-10T02:36:28.766Z,20.66
2022-08-10T02:39:00.971Z,20.65
2022-08-10T02:45:03.201Z,20.67
2022-08-10T02:45:22.328Z,20.59
2022-08-10T02:47:26.834Z,20.56
2022-08-10T02:50:03.207Z,20.62
2022-08-10T02:52:37.200Z,20.65
2022-08-10T02:55:17.960Z,20.65
2022-08-10T02:58:13.916Z,20.72
2022-08-10T03:00:45.417Z,20.80
2022-08-10T03:03:19.309Z,20.81
2022-08-10T03:05:50.138Z,20.76
2022-08-10T03:08:22.380Z,20.65
2022-08-10T03:10:51.556Z,20.55
2022-08-10T03:13:21.544Z,20.78
2022-08-10T03:15:52.369Z,20.74
2022-08-10T03:18:24.525Z,20.69
2022-08-10T03:20:54.916Z,20.51
2022-08-10T03:23:25.111Z,20.49
2022-08-10T03:25:57.742Z,20.43
2022-08-10T03:28:28.885Z,20.66
2022-08-10T03:30:58.589Z,20.58
2022-08-10T03:33:31.301Z,20.70
2022-08-10T03:36:40.156Z,20.69
2022-08-10T03:38:51.606Z,20.62
2022-08-10T03:41:29.643Z,20.62
2022-08-10T03:43:59.393Z,20.56
2022-08-10T03:46:27.638Z,20.58
2022-08-10T03:48:59.199Z,20.47
2022-08-10T03:51:29.847Z,20.41
2022-08-10T03:54:04.805Z,20.38
2022-08-10T03:56:36.966Z,20.21
2022-08-10T03:59:06.359Z,20.35
2022-08-10T04:02:45.904Z,20.33
2022-08-10T04:04:25.552Z,20.17
2022-08-10T04:06:55.805Z,20.10
2022-08-10T04:09:43.469Z,20.06
2022-08-10T04:12:14.589Z,20.05
2022-08-10T04:14:51.327Z,19.94
2022-08-10T04:17:56.846Z,19.85
2022-08-10T04:20:18.723Z,19.86
2022-08-10T04:22:49.607Z,20.07
2022-08-10T04:25:18.776Z,19.89
2022-08-10T04:27:47.727Z,19.83
2022-08-10T04:30:16.119Z,20.04
2022-08-10T04:32:46.620Z,20.03
2022-08-10T04:35:19.746Z,20.10
2022-08-10T04:37:50.441Z,20.09
2022-08-10T04:40:25.209Z,19.99
2022-08-10T04:43:03.389Z,19.84
2022-08-10T04:45:49.823Z,19.86
2022-08-10T04:48:42.867Z,19.69
2022-08-10T04:51:18.699Z,19.54
2022-08-10T04:54:04.022Z,19.45
2022-08-10T04:56:39.493Z,19.52
2022-08-10T04:59:09.063Z,19.66
2022-08-10T05:02:28.566Z,19.82
2022-08-10T05:04:34.421Z,20.03
2022-08-10T05:07:16.514Z,20.31
2022-08-10T05:10:01.194Z,20.56
2022-08-10T05:12:36.410Z,20.64
2022-08-10T05:15:07.560Z,20.73
2022-08-10T05:17:36.164Z,20.92
2022-08-10T05:20:07.469Z,20.95
2022-08-10T05:22:40.444Z,21.05
2022-08-10T05:25:11.011Z,21.11
2022-08-10T05:27:39.847Z,21.07
2022-08-10T05:30:09.575Z,21.06
2022-08-10T05:32:59.076Z,21.33
2022-08-10T05:35:27.203Z,21.45
2022-08-10T05:38:12.733Z,21.40
2022-08-10T05:40:46.586Z,21.40
2022-08-10T05:43:18.487Z,21.54
2022-08-10T05:46:16.812Z,21.53
2022-08-10T05:48:55.247Z,21.64
2022-08-10T05:51:24.148Z,21.70
2022-08-10T05:54:02.249Z,21.87
2022-08-10T05:56:56.259Z,22.00
2022-08-10T06:00:29.530Z,21.96
2022-08-10T06:02:32.001Z,22.21
2022-08-10T06:05:07.569Z,22.22
2022-08-10T06:07:39.935Z,22.24
2022-08-10T06:10:14.444Z,22.40
2022-08-10T06:13:26.761Z,22.45
2022-08-10T06:15:59.839Z,22.62
2022-08-10T06:18:28.162Z,22.73
2022-08-10T06:20:57.247Z,22.85
2022-08-10T06:23:27.191Z,23.01
2022-08-10T06:26:09.783Z,23.16
2022-08-10T06:29:00.207Z,23.45
2022-08-10T06:31:47.113Z,23.63
2022-08-10T06:34:20.649Z,23.94
2022-08-10T06:36:50.015Z,24.30
2022-08-10T06:39:32.913Z,24.59
2022-08-10T06:42:16.050Z,24.76
2022-08-10T06:44:52.307Z,25.01
2022-08-10T06:47:24.391Z,25.32
2022-08-10T06:49:59.973Z,25.47
2022-08-10T06:52:31.898Z,25.34
2022-08-10T06:55:05.171Z,25.63
2022-08-10T06:57:38.464Z,25.94
2022-08-10T07:00:08.756Z,25.78
2022-08-10T07:02:45.164Z,26.12
2022-08-10T07:05:18.511Z,26.29
2022-08-10T07:07:48.589Z,26.26
2022-08-10T07:10:20.402Z,26.50
2022-08-10T07:12:52.011Z,26.62
2022-08-10T07:15:21.442Z,26.75
2022-08-10T07:17:50.131Z,26.83
2022-08-10T07:20:19.743Z,26.82
2022-08-10T07:23:08.362Z,26.79
2022-08-10T07:25:40.559Z,26.75
2022-08-10T07:28:10.989Z,27.13
2022-08-10T07:30:41.836Z,27.06
2022-08-10T07:33:11.535Z,27.15
2022-08-10T07:35:43.769Z,27.03
2022-08-10T07:38:16.922Z,26.99
2022-08-10T07:40:46.234Z,27.26
2022-08-10T07:43:17.017Z,26.94
2022-08-10T07:45:47.588Z,26.96
2022-08-10T07:48:19.956Z,27.30
2022-08-10T07:50:49.202Z,27.43
2022-08-10T07:53:21.724Z,27.41
2022-08-10T07:56:07.450Z,27.83
2022-08-10T07:58:51.506Z,27.84
2022-08-10T08:01:24.299Z,28.37
2022-08-10T08:04:10.742Z,28.46
2022-08-10T08:06:42.462Z,28.37
2022-08-10T08:09:11.696Z,28.54
2022-08-10T08:11:40.571Z,28.48
2022-08-10T08:14:12.074Z,28.93
2022-08-10T08:16:43.203Z,28.95
2022-08-10T08:19:30.563Z,28.86
2022-08-10T08:24:05.949Z,29.00
2022-08-10T08:24:52.178Z,28.85
2022-08-10T08:27:22.034Z,29.14
2022-08-10T08:29:53.135Z,29.62
2022-08-10T08:32:23.931Z,29.42
2022-08-10T08:34:56.796Z,29.58
2022-08-10T08:38:30.167Z,30.03
2022-08-10T08:40:22.125Z,29.64
2022-08-10T08:43:10.285Z,29.83
2022-08-10T08:46:01.128Z,29.84
2022-08-10T08:49:00.005Z,29.72
2022-08-10T08:52:07.152Z,30.18
2022-08-10T08:54:49.304Z,30.53
2022-08-10T08:57:50.993Z,30.47
2022-08-10T09:00:20.167Z,30.22
2022-08-10T09:03:17.715Z,29.94
2022-08-10T09:05:58.393Z,30.67
2022-08-10T09:08:43.794Z,30.16
2022-08-10T09:11:28.623Z,30.09
2022-08-10T09:14:06.226Z,30.72
2022-08-10T09:16:43.687Z,30.38
2022-08-10T09:19:36.430Z,30.13
2022-08-10T09:22:17.953Z,30.17
2022-08-10T09:24:53.797Z,30.04
2022-08-10T09:27:24.111Z,30.64
2022-08-10T09:29:57.127Z,30.91
2022-08-10T09:36:19.688Z,31.27
2022-08-10T09:36:23.505Z,31.74
2022-08-10T09:38:34.723Z,31.33
2022-08-10T09:41:17.305Z,31.29
2022-08-10T09:43:55.380Z,31.84
2022-08-10T09:46:51.951Z,31.24
2022-08-10T09:49:53.471Z,31.34
2022-08-10T09:52:26.000Z,31.35
2022-08-10T09:55:01.094Z,31.89
2022-08-10T09:57:43.149Z,31.75
2022-08-10T10:00:16.415Z,31.65
2022-08-10T10:03:13.332Z,31.62
2022-08-10T10:05:52.602Z,31.67
2022-08-10T10:08:33.378Z,31.31
2022-08-10T10:11:08.635Z,31.16
2022-08-10T10:14:02.522Z,31.48
2022-08-10T10:16:44.550Z,31.54
2022-08-10T10:19:37.279Z,31.54
2022-08-10T10:22:26.353Z,31.60
2022-08-10T10:25:20.016Z,31.57
2022-08-10T10:27:59.116Z,31.35
2022-08-10T10:30:32.979Z,32.01
2022-08-10T10:33:14.579Z,31.60
2022-08-10T10:35:52.149Z,31.72
2022-08-10T10:38:22.477Z,32.52
2022-08-10T10:40:59.304Z,33.05
2022-08-10T10:43:40.727Z,32.72
2022-08-10T10:46:23.187Z,32.91
2022-08-10T10:49:01.337Z,32.51
2022-08-10T10:51:35.260Z,32.59
2022-08-10T10:54:10.479Z,33.00
2022-08-10T10:56:56.710Z,32.99
2022-08-10T10:59:55.817Z,33.08
2022-08-10T11:02:38.784Z,32.76
2022-08-10T11:05:19.656Z,32.58
2022-08-10T11:07:55.617Z,33.01
2022-08-10T11:10:32.689Z,33.19
2022-08-10T11:14:27.100Z,32.89
2022-08-10T11:16:09.041Z,32.65
2022-08-10T11:19:02.913Z,33.02
2022-08-10T11:21:44.182Z,33.61
2022-08-10T11:24:47.863Z,32.92
2022-08-10T11:27:22.066Z,32.69
2022-08-10T11:30:04.463Z,33.86
2022-08-10T11:32:43.834Z,34.13
2022-08-10T11:35:21.338Z,32.80
2022-08-10T11:38:31.710Z,32.56
2022-08-10T11:41:05.553Z,33.70
2022-08-10T11:43:57.993Z,34.18
2022-08-10T11:46:32.850Z,34.38
2022-08-10T11:49:09.517Z,34.25
2022-08-10T11:51:45.537Z,33.80
2022-08-10T11:54:25.344Z,32.89
2022-08-10T11:57:01.828Z,32.84
2022-08-10T11:59:50.901Z,32.87
2022-08-10T12:02:32.325Z,32.39
2022-08-10T12:05:05.973Z,33.07
2022-08-10T12:10:02.500Z,33.18
2022-08-10T12:10:26.211Z,32.66
2022-08-10T12:13:01.264Z,32.41
2022-08-10T12:15:36.791Z,32.37
2022-08-10T12:18:16.421Z,32.68
2022-08-10T12:20:50.748Z,33.67
2022-08-10T12:23:24.935Z,34.06
2022-08-10T12:25:59.402Z,34.42
2022-08-10T12:28:50.527Z,33.00
2022-08-10T12:31:26.004Z,33.01
2022-08-10T12:34:14.512Z,32.73
2022-08-10T12:36:47.916Z,33.39
2022-08-10T12:39:20.040Z,32.82
2022-08-10T12:41:57.188Z,32.67
2022-08-10T12:44:41.005Z,33.66
2022-08-10T12:47:17.786Z,34.19
2022-08-10T12:50:29.254Z,33.72
2022-08-10T12:52:52.876Z,33.51
2022-08-10T12:55:23.371Z,32.86
2022-08-10T12:57:55.392Z,32.61
2022-08-10T13:00:30.930Z,33.12
2022-08-10T13:03:01.516Z,32.83
2022-08-10T13:06:02.550Z,32.33
2022-08-10T13:08:40.900Z,32.66
2022-08-10T13:12:34.381Z,33.46
2022-08-10T13:14:09.816Z,34.29
2022-08-10T13:16:39.375Z,33.07
2022-08-10T13:19:08.685Z,33.30
2022-08-10T13:21:41.009Z,33.52
2022-08-10T13:24:12.954Z,33.65
2022-08-10T13:27:25.048Z,33.89
2022-08-10T13:29:40.088Z,34.03
2022-08-10T13:32:11.437Z,34.28
2022-08-10T13:34:46.267Z,34.75
2022-08-10T13:37:21.343Z,34.33
2022-08-10T13:39:58.743Z,34.07
2022-08-10T13:42:32.323Z,33.71
2022-08-10T13:45:11.980Z,33.65
2022-08-10T13:47:48.360Z,33.70
2022-08-10T13:50:35.220Z,32.92
2022-08-10T13:53:14.674Z,32.90
2022-08-10T13:55:54.351Z,32.88
2022-08-10T13:58:27.402Z,33.73
2022-08-10T14:00:57.719Z,34.24
2022-08-10T14:03:28.082Z,35.30
2022-08-10T14:05:59.349Z,35.93
2022-08-10T14:08:35.284Z,35.46
2022-08-10T14:11:11.029Z,35.83
2022-08-10T14:13:46.334Z,35.21
2022-08-10T14:16:15.227Z,34.70
2022-08-10T14:18:45.771Z,34.96
2022-08-10T14:21:14.597Z,34.96
2022-08-10T14:23:48.641Z,34.05
2022-08-10T14:26:25.029Z,32.37
2022-08-10T14:28:55.674Z,32.39
2022-08-10T14:31:30.227Z,32.59
2022-08-10T14:34:00.385Z,32.76
2022-08-10T14:36:34.408Z,33.09
2022-08-10T14:39:04.964Z,34.02
2022-08-10T14:42:02.974Z,33.58
2022-08-10T14:44:29.426Z,33.41
2022-08-10T14:47:05.184Z,32.64
2022-08-10T14:49:57.370Z,31.88
2022-08-10T14:52:28.265Z,31.27
2022-08-10T14:55:04.451Z,30.84
2022-08-10T14:58:16.675Z,31.11
2022-08-10T15:00:33.819Z,31.98
2022-08-10T15:03:10.940Z,32.59
2022-08-10T15:05:59.036Z,33.22
2022-08-10T15:08:36.690Z,33.24
2022-08-10T15:11:07.529Z,32.99
2022-08-10T15:13:37.151Z,32.88
2022-08-10T15:16:12.889Z,33.07
2022-08-10T15:18:58.448Z,33.38
2022-08-10T15:21:42.642Z,33.15
2022-08-10T15:24:36.373Z,32.74
2022-08-10T15:27:09.967Z,32.88
2022-08-10T15:29:57.244Z,32.55
2022-08-10T15:32:52.414Z,32.73
2022-08-10T15:35:42.177Z,32.07
2022-08-10T15:38:11.391Z,32.19
2022-08-10T15:40:53.983Z,31.31
2022-08-10T15:43:26.834Z,31.19
2022-08-10T15:46:01.553Z,31.44
2022-08-10T15:48:33.834Z,31.23
2022-08-10T15:51:06.338Z,30.91
2022-08-10T15:53:49.030Z,31.10
2022-08-10T15:56:27.846Z,31.14
2022-08-10T15:59:08.214Z,31.49
2022-08-10T16:02:14.287Z,31.27
2022-08-10T16:04:37.652Z,31.25
2022-08-10T16:07:09.790Z,31.23
2022-08-10T16:10:23.155Z,30.80
2022-08-10T16:12:35.325Z,30.64
2022-08-10T16:15:10.660Z,30.56
2022-08-10T16:17:55.360Z,30.53
2022-08-10T16:20:31.299Z,30.31
2022-08-10T16:23:03.137Z,30.43
2022-08-10T16:25:48.138Z,30.22
2022-08-10T16:28:23.899Z,30.05
2022-08-10T16:30:55.999Z,30.13
2022-08-10T16:33:52.589Z,30.46
2022-08-10T16:36:17.831Z,29.92
2022-08-10T16:38:49.367Z,30.09
2022-08-10T16:42:02.994Z,30.14
2022-08-10T16:44:12.493Z,30.10
2022-08-10T16:46:45.952Z,29.95
2022-08-10T16:49:15.967Z,29.83
2022-08-10T16:51:48.589Z,29.65
2022-08-10T16:54:24.791Z,29.59
2022-08-10T16:57:01.591Z,29.46
2022-08-10T16:59:31.531Z,29.42
2022-08-10T17:02:02.551Z,29.19
2022-08-10T17:04:32.197Z,29.06
2022-08-10T17:07:03.898Z,29.13
2022-08-10T17:09:35.057Z,29.12
2022-08-10T17:12:10.293Z,29.08
2022-08-10T17:14:40.658Z,29.00
2022-08-10T17:17:15.050Z,28.95
2022-08-10T17:19:45.671Z,28.99
2022-08-10T17:22:17.069Z,28.94
2022-08-10T17:24:48.729Z,28.92
2022-08-10T17:28:03.844Z,28.83
2022-08-10T17:30:15.851Z,28.76
2022-08-10T17:32:58.345Z,28.59
2022-08-10T17:35:29.820Z,28.68
2022-08-10T17:38:06.379Z,28.56
2022-08-10T17:40:42.084Z,28.63
2022-08-10T17:43:11.998Z,28.62
2022-08-10T17:45:46.218Z,28.72
2022-08-10T17:48:22.002Z,28.51
2022-08-10T17:50:52.247Z,28.48
2022-08-10T17:53:23.411Z,28.28
2022-08-10T17:55:56.133Z,28.17
2022-08-10T17:58:27.070Z,28.04
2022-08-10T18:00:57.464Z,28.05
2022-08-10T18:03:51.753Z,28.04
2022-08-10T18:06:20.413Z,27.95
2022-08-10T18:08:52.643Z,27.84
2022-08-10T18:11:23.216Z,27.82
2022-08-10T18:13:56.983Z,27.58
2022-08-10T18:16:29.439Z,27.44
2022-08-10T18:19:03.939Z,27.40
2022-08-10T18:21:34.138Z,27.19
2022-08-10T18:24:10.807Z,27.01
2022-08-10T18:26:44.109Z,26.88
2022-08-10T18:29:18.863Z,26.78
2022-08-10T18:31:50.054Z,26.76
2022-08-10T18:34:22.677Z,26.69
2022-08-10T18:36:52.967Z,26.53
2022-08-10T18:39:25.001Z,26.35
2022-08-10T18:42:00.624Z,26.14
2022-08-10T18:44:37.217Z,25.92
2022-08-10T18:47:10.550Z,25.70
2022-08-10T18:49:58.946Z,25.46
2022-08-10T18:52:32.344Z,25.27
2022-08-10T18:55:14.385Z,25.09
2022-08-10T18:58:27.421Z,25.14
2022-08-10T19:01:12.585Z,24.98
2022-08-10T19:03:58.495Z,24.83
2022-08-10T19:06:49.446Z,24.61
2022-08-10T19:09:46.604Z,24.31
2022-08-10T19:12:40.154Z,24.00
2022-08-10T19:15:19.704Z,23.74
2022-08-10T19:18:04.611Z,23.52
2022-08-10T19:20:42.266Z,23.35
2022-08-10T19:23:27.331Z,23.21
2022-08-10T19:26:42.325Z,23.05
2022-08-10T19:30:09.857Z,22.98
2022-08-10T19:32:29.543Z,22.86
2022-08-10T19:35:04.707Z,22.69
2022-08-10T19:37:41.984Z,22.59
2022-08-10T19:40:45.983Z,22.54
2022-08-10T19:43:20.813Z,22.50
2022-08-10T19:46:18.667Z,22.37
2022-08-10T19:48:53.345Z,22.25
2022-08-10T19:51:33.434Z,22.12
2022-08-10T19:54:08.858Z,21.97
2022-08-10T19:56:46.863Z,21.87
2022-08-10T20:00:17.559Z,21.88
2022-08-10T20:02:21.867Z,21.79
2022-08-10T20:04:57.749Z,21.79
2022-08-10T20:07:35.260Z,21.73
2022-08-10T20:10:12.189Z,21.61
2022-08-10T20:12:46.785Z,21.52
2022-08-10T20:15:28.560Z,21.43
2022-08-10T20:18:02.827Z,21.47
2022-08-10T20:20:36.640Z,21.54
2022-08-10T20:23:16.674Z,21.37
2022-08-10T20:25:48.325Z,21.29
2022-08-10T20:28:22.122Z,21.19
2022-08-10T20:30:53.861Z,21.25
2022-08-10T20:33:29.138Z,21.40
2022-08-10T20:36:04.235Z,21.36
2022-08-10T20:38:39.462Z,21.29
2022-08-10T20:41:17.421Z,21.30
2022-08-10T20:44:01.150Z,21.22
2022-08-10T20:46:36.531Z,21.09
2022-08-10T20:49:16.599Z,21.03
2022-08-10T20:51:59.510Z,20.97
2022-08-10T20:54:32.623Z,21.01
2022-08-10T20:57:55.192Z,20.85
2022-08-10T21:00:22.922Z,20.75
2022-08-10T21:03:21.101Z,20.82
2022-08-10T21:05:59.858Z,20.90
2022-08-10T21:08:40.423Z,20.73
2022-08-10T21:11:18.624Z,20.53
2022-08-10T21:14:03.578Z,20.40
2022-08-10T21:16:47.317Z,20.27
2022-08-10T21:19:53.983Z,20.14
2022-08-10T21:22:29.101Z,20.28
2022-08-10T21:25:03.126Z,20.32
2022-08-10T21:28:28.845Z,20.36
2022-08-10T21:31:15.667Z,20.37
2022-08-10T21:34:07.175Z,20.34
2022-08-10T21:36:41.334Z,20.40
2022-08-10T21:39:16.693Z,20.26
2022-08-10T21:42:14.848Z,20.26
2022-08-10T21:45:16.798Z,20.26
2022-08-10T21:48:18.684Z,20.40
2022-08-10T21:54:25.788Z,20.46
2022-08-10T21:57:19.773Z,20.70
2022-08-10T22:03:18.411Z,20.82
2022-08-10T22:06:09.219Z,20.79
2022-08-10T22:09:00.925Z,20.68
2022-08-10T22:11:50.071Z,20.56
2022-08-10T22:14:43.718Z,20.58
2022-08-10T22:18:01.263Z,20.49
2022-08-10T22:20:43.675Z,20.48
2022-08-10T22:23:57.686Z,20.45
2022-08-10T22:27:00.813Z,20.48
2022-08-10T22:29:52.913Z,20.44
2022-08-10T22:31:25.596Z,20.86
2022-08-10T22:31:28.552Z,20.36
2022-08-10T22:32:48.806Z,20.30
2022-08-10T22:36:00.738Z,20.22
2022-08-10T22:39:02.248Z,20.14
2022-08-10T22:42:06.834Z,20.24
2022-08-10T22:44:57.373Z,20.22
2022-08-10T22:47:46.160Z,20.19
2022-08-10T22:50:19.117Z,20.10
2022-08-10T22:52:58.856Z,19.98
2022-08-10T22:55:56.997Z,19.89
2022-08-10T22:58:42.484Z,19.92
2022-08-10T23:01:35.932Z,20.09
2022-08-10T23:04:09.078Z,20.14
2022-08-10T23:06:41.362Z,20.02
2022-08-10T23:09:11.937Z,19.98
2022-08-10T23:11:44.947Z,20.01
2022-08-10T23:14:16.230Z,20.02
2022-08-10T23:17:04.491Z,20.01
2022-08-10T23:19:39.566Z,20.07
2022-08-10T23:22:10.283Z,20.10
2022-08-10T23:24:43.926Z,20.08
2022-08-10T23:27:38.610Z,20.25
2022-08-10T23:30:10.856Z,20.33
2022-08-10T23:32:48.763Z,20.40
2022-08-10T23:36:12.973Z,20.37
2022-08-10T23:38:08.213Z,20.34
2022-08-10T23:40:37.493Z,20.26
2022-08-10T23:43:07.971Z,20.22
2022-08-10T23:45:53.921Z,20.06
2022-08-10T23:48:27.112Z,19.97
2022-08-10T23:50:59.677Z,19.81
2022-08-10T23:53:31.027Z,19.70
2022-08-10T23:56:06.863Z,19.68
2022-08-10T23:58:44.342Z,19.83
